createdAt,value
2023-02-03T00:00:28.823Z,5.53
2023-02-03T00:05:32.972Z,7.85
2023-02-03T00:10:35.881Z,6.57
2023-02-03T00:15:38.518Z,5.95
2023-02-03T00:20:42.509Z,5.30
2023-02-03T00:25:45.163Z,5.75
2023-02-03T00:30:47.787Z,8.13
2023-02-03T00:35:51.807Z,5.30
2023-02-03T00:40:55.243Z,5.28
2023-02-03T00:45:59.064Z,7.50
2023-02-03T00:51:03.099Z,7.28
2023-02-03T00:56:12.361Z,5.18
2023-02-03T01:01:15.167Z,6.38
2023-02-03T01:06:21.420Z,6.70
2023-02-03T01:11:25.762Z,5.95
2023-02-03T01:16:29.731Z,5.40
2023-02-03T01:21:34.027Z,5.90
2023-02-03T01:26:38.171Z,4.65
2023-02-03T01:31:42.500Z,8.77
2023-02-03T01:36:47.286Z,4.72
2023-02-03T01:41:49.962Z,4.50
2023-02-03T01:46:52.816Z,4.78
2023-02-03T01:51:57.197Z,5.35
2023-02-03T01:57:03.121Z,6.07
2023-02-03T02:02:06.172Z,5.10
2023-02-03T02:07:10.567Z,5.93
2023-02-03T02:12:15.375Z,5.80
2023-02-03T02:17:31.899Z,5.60
2023-02-03T02:22:40.445Z,5.15
2023-02-03T02:28:13.473Z,4.43
2023-02-03T02:33:28.122Z,4.47
2023-02-03T02:38:39.723Z,5.57
2023-02-03T02:43:45.589Z,3.90
2023-02-03T02:48:54.588Z,4.55
2023-02-03T02:53:59.840Z,5.28
2023-02-03T02:59:04.118Z,5.20
2023-02-03T03:04:10.499Z,5.28
2023-02-03T03:09:18.142Z,4.35
2023-02-03T03:14:22.148Z,3.25
2023-02-03T03:19:28.986Z,4.45
2023-02-03T03:24:33.649Z,5.80
2023-02-03T03:29:39.197Z,4.40
2023-02-03T03:34:43.389Z,4.38
2023-02-03T03:39:48.252Z,3.35
2023-02-03T03:44:55.119Z,3.65
2023-02-03T03:50:01.131Z,4.40
2023-02-03T03:55:05.137Z,4.03
2023-02-03T04:00:10.618Z,4.28
2023-02-03T04:05:17.727Z,4.57
2023-02-03T04:10:26.791Z,4.75
2023-02-03T04:15:29.610Z,6.20
2023-02-03T04:20:34.008Z,5.35
2023-02-03T04:25:36.833Z,4.97
2023-02-03T04:30:39.534Z,4.65
2023-02-03T04:35:43.589Z,4.40
2023-02-03T04:40:46.820Z,3.90
2023-02-03T04:45:49.495Z,3.45
2023-02-03T04:50:53.506Z,4.28
2023-02-03T04:55:56.140Z,4.78
2023-02-03T05:00:58.937Z,3.83
2023-02-03T05:06:03.168Z,3.67
2023-02-03T05:11:06.782Z,4.20
2023-02-03T05:16:09.614Z,3.90
2023-02-03T05:21:13.627Z,3.78
2023-02-03T05:26:16.369Z,4.15
2023-02-03T05:31:19.212Z,4.43
2023-02-03T05:36:23.288Z,4.28
2023-02-03T05:41:43.350Z,4.82
2023-02-03T05:46:45.977Z,5.30
2023-02-03T05:51:50.104Z,4.05
2023-02-03T05:56:52.910Z,3.90
2023-02-03T06:01:55.577Z,5.95
2023-02-03T06:06:59.541Z,4.93
2023-02-03T06:12:02.134Z,4.68
2023-02-03T06:17:04.759Z,3.58
2023-02-03T06:22:08.845Z,3.83
2023-02-03T06:27:11.844Z,5.72
2023-02-03T06:32:14.422Z,5.10
2023-02-03T06:37:18.508Z,6.10
2023-02-03T06:42:21.207Z,3.53
2023-02-03T06:47:23.800Z,4.15
2023-02-03T06:52:27.866Z,3.28
2023-02-03T06:57:30.459Z,6.47
2023-02-03T07:02:33.134Z,2.65
2023-02-03T07:07:39.205Z,4.85
2023-02-03T07:12:41.908Z,2.40
2023-02-03T07:17:44.616Z,3.85
2023-02-03T07:22:52.709Z,2.58
2023-02-03T07:27:55.552Z,2.53
2023-02-03T07:32:58.324Z,3.67
2023-02-03T07:38:02.533Z,2.80
2023-02-03T07:43:05.277Z,3.55
2023-02-03T07:48:07.984Z,3.80
2023-02-03T07:53:12.094Z,3.08
2023-02-03T07:58:15.028Z,3.80
2023-02-03T08:03:17.662Z,2.95
2023-02-03T08:08:21.829Z,2.05
2023-02-03T08:13:24.682Z,2.85
2023-02-03T08:18:27.472Z,3.33
2023-02-03T08:23:31.561Z,6.38
2023-02-03T08:28:34.184Z,3.00
2023-02-03T08:38:54.759Z,3.15
2023-02-03T08:43:57.923Z,4.20
2023-02-03T08:49:06.264Z,2.30
2023-02-03T08:54:10.323Z,4.97
2023-02-03T08:59:16.797Z,3.33
2023-02-03T09:04:24.419Z,2.25
2023-02-03T09:09:29.002Z,1.95
2023-02-03T09:14:32.888Z,2.30
2023-02-03T09:19:36.650Z,3.08
2023-02-03T09:24:40.916Z,2.45
2023-02-03T09:29:43.576Z,2.58
2023-02-03T09:34:46.294Z,2.65
2023-02-03T09:40:21.134Z,2.88
2023-02-03T09:45:26.288Z,3.97
2023-02-03T09:50:54.396Z,3.22
2023-02-03T09:55:58.990Z,1.98
2023-02-03T10:01:29.989Z,3.90
2023-02-03T10:12:32.231Z,6.30
2023-02-03T10:17:38.861Z,3.63
2023-02-03T10:22:43.735Z,3.42
2023-02-03T10:27:49.007Z,2.55
2023-02-03T10:32:53.440Z,2.55
2023-02-03T10:37:58.793Z,2.83
2023-02-03T10:43:20.673Z,5.22
2023-02-03T10:48:24.421Z,2.75
2023-02-03T10:54:27.869Z,2.47
2023-02-03T10:59:35.331Z,3.25
2023-02-03T11:04:38.346Z,3.58
2023-02-03T11:09:42.712Z,3.67
2023-02-03T11:16:12.486Z,3.97
2023-02-03T11:21:43.847Z,2.70
2023-02-03T11:27:48.250Z,3.55
2023-02-03T11:32:52.627Z,3.20
2023-02-03T11:37:58.108Z,4.78
2023-02-03T11:43:03.768Z,3.13
2023-02-03T11:48:25.296Z,7.13
2023-02-03T11:53:33.839Z,2.78
2023-02-03T11:58:56.012Z,2.47
2023-02-03T12:04:11.795Z,3.90
2023-02-03T12:09:24.965Z,2.80
2023-02-03T12:14:37.323Z,3.25
2023-02-03T12:19:50.710Z,2.88
2023-02-03T12:25:00.964Z,4.43
2023-02-03T12:30:07.943Z,3.97
2023-02-03T12:35:17.259Z,3.22
2023-02-03T12:40:24.791Z,4.07
2023-02-03T12:45:30.862Z,3.03
2023-02-03T12:50:40.652Z,2.80
2023-02-03T12:55:47.488Z,3.42
2023-02-03T13:00:53.396Z,4.32
2023-02-03T13:06:07.144Z,4.30
2023-02-03T13:11:18.851Z,2.83
2023-02-03T13:16:26.260Z,3.08
2023-02-03T13:21:29.539Z,5.30
2023-02-03T13:26:57.091Z,3.08
2023-02-03T13:32:10.579Z,2.83
2023-02-03T13:37:32.225Z,3.03
2023-02-03T13:42:39.613Z,2.72
2023-02-03T13:47:47.260Z,3.25
2023-02-03T13:52:57.367Z,3.65
2023-02-03T13:58:01.928Z,4.80
2023-02-03T14:03:04.784Z,4.15
2023-02-03T14:08:53.319Z,5.30
2023-02-03T14:14:02.535Z,11.65
2023-02-03T14:19:06.080Z,7.25
2023-02-03T14:24:10.290Z,13.82
2023-02-03T14:29:26.445Z,12.00
2023-02-03T14:34:31.688Z,14.98
2023-02-03T14:40:09.918Z,17.92
2023-02-03T14:45:26.192Z,12.50
2023-02-03T14:50:35.763Z,14.30
2023-02-03T14:55:47.331Z,10.77
2023-02-03T15:00:52.643Z,11.75
2023-02-03T15:05:57.474Z,13.18
2023-02-03T15:11:01.242Z,13.02
2023-02-03T15:16:06.759Z,12.50
2023-02-03T15:21:16.069Z,10.82
2023-02-03T15:26:21.314Z,14.00
2023-02-03T15:31:29.433Z,9.48
2023-02-03T15:36:39.418Z,10.90
2023-02-03T15:41:42.408Z,9.63
2023-02-03T15:46:49.793Z,9.23
2023-02-03T15:51:56.806Z,8.27
2023-02-03T15:57:00.987Z,8.98
2023-02-03T16:02:08.842Z,9.45
2023-02-03T16:07:16.990Z,9.50
2023-02-03T16:12:24.426Z,10.07
2023-02-03T16:17:30.251Z,11.32
2023-02-03T16:22:37.873Z,10.77
2023-02-03T16:27:40.803Z,17.25
2023-02-03T16:33:02.555Z,12.77
2023-02-03T16:38:26.451Z,19.42
2023-02-03T16:43:46.916Z,14.77
2023-02-03T16:49:08.567Z,11.40
2023-02-03T16:54:14.055Z,12.88
2023-02-03T16:59:17.204Z,16.90
2023-02-03T17:04:21.360Z,10.88
2023-02-03T17:09:25.047Z,9.32
2023-02-03T17:14:28.142Z,11.95
2023-02-03T17:19:32.150Z,9.90
2023-02-03T17:24:34.879Z,17.30
2023-02-03T17:29:37.856Z,10.85
2023-02-03T17:34:42.224Z,6.60
2023-02-03T17:55:49.145Z,8.48
2023-02-03T18:00:52.287Z,13.30
2023-02-03T18:05:57.549Z,9.23
2023-02-03T18:11:00.824Z,8.90
2023-02-03T18:16:03.765Z,9.88
2023-02-03T18:21:10.028Z,7.47
2023-02-03T18:26:13.873Z,9.13
2023-02-03T18:31:18.131Z,9.02
2023-02-03T18:36:22.492Z,7.35
2023-02-03T18:41:26.872Z,7.47
2023-02-03T18:46:31.318Z,9.95
2023-02-03T18:51:35.438Z,10.07
2023-02-03T18:56:38.528Z,14.88
2023-02-03T19:01:41.433Z,6.82
2023-02-03T19:06:46.786Z,6.72
2023-02-03T19:11:49.496Z,8.95
2023-02-03T19:16:53.115Z,8.30
2023-02-03T19:21:58.478Z,7.10
2023-02-03T19:27:01.319Z,10.73
2023-02-03T19:32:04.387Z,8.90
2023-02-03T19:37:09.100Z,12.02
2023-02-03T19:42:12.269Z,9.02
2023-02-03T19:47:14.998Z,10.10
2023-02-03T19:52:19.114Z,10.80
2023-02-03T19:57:21.937Z,11.05
2023-02-03T20:02:25.902Z,11.23
2023-02-03T20:07:33.586Z,9.98
2023-02-03T20:12:36.295Z,8.80
2023-02-03T20:17:46.985Z,12.00
2023-02-03T20:22:51.265Z,13.32
2023-02-03T20:27:55.182Z,12.88
2023-02-03T20:32:58.001Z,12.68
2023-02-03T20:38:10.292Z,12.38
2023-02-03T20:43:16.236Z,13.20
2023-02-03T20:48:22.197Z,13.38
2023-02-03T20:53:27.618Z,14.82
2023-02-03T20:58:37.164Z,11.93
2023-02-03T21:03:57.472Z,12.68
2023-02-03T21:09:12.374Z,17.50
2023-02-03T21:14:20.135Z,13.70
2023-02-03T21:19:39.147Z,14.52
2023-02-03T21:24:54.676Z,13.63
2023-02-03T21:29:58.132Z,15.52
2023-02-03T21:35:24.917Z,16.40
2023-02-03T21:40:30.803Z,16.63
2023-02-03T21:45:38.755Z,15.30
2023-02-03T21:50:42.110Z,15.20
2023-02-03T21:55:46.264Z,14.88
2023-02-03T22:00:49.777Z,14.18
2023-02-03T22:05:52.753Z,14.57
2023-02-03T22:10:56.912Z,16.20
2023-02-03T22:16:00.152Z,14.90
2023-02-03T22:21:03.233Z,15.38
2023-02-03T22:26:08.970Z,15.02
2023-02-03T22:31:13.142Z,12.98
2023-02-03T22:36:16.088Z,14.18
2023-02-03T22:41:20.897Z,13.73
2023-02-03T22:46:23.789Z,12.52
2023-02-03T22:51:26.647Z,13.05
2023-02-03T22:56:30.747Z,15.00
2023-02-03T23:01:34.484Z,12.60
2023-02-03T23:06:37.337Z,13.60
2023-02-03T23:11:41.404Z,12.60
2023-02-03T23:16:44.325Z,12.05
2023-02-03T23:21:47.138Z,12.55
2023-02-03T23:26:52.146Z,17.33
2023-02-03T23:31:54.947Z,12.85
2023-02-03T23:37:01.306Z,19.92
2023-02-03T23:42:05.927Z,15.75
2023-02-03T23:47:09.257Z,14.68
2023-02-03T23:52:12.116Z,26.20
2023-02-03T23:57:16.199Z,16.73
